Terminal Aerodrome Forecast
Issued by NWS

Home | Current Version | Previous Version | Text Only | Print | Product List | Glossary On
Versions: 1 2 3 4 5 6 7 8 9 10 11 12 13 14 15 16 17 18 19
281
FTUS41 KILN 260705 AAB
TAFLUK
TAF AMD
KLUK 260705Z 2607/2706 00000KT 1SM BR SKC
      TEMPO 2607/2611 1/4SM FG SCT002
     FM261100 00000KT 3SM BR SKC
     FM261300 VRB03KT P6SM SKC
     FM261600 VRB03KT P6SM FEW050
     FM270000 00000KT P6SM SKC=

USA.gov is the U.S. government's official web portal to all federal, state and local government web resources and services.